createdAt,value
2018-09-04T00:07:52.889Z,12.00
2018-09-04T00:17:54.171Z,11.40
2018-09-04T00:27:55.575Z,10.80
2018-09-04T00:37:57.596Z,11.93
2018-09-04T00:47:59.751Z,10.40
2018-09-04T00:58:01.035Z,12.37
2018-09-04T01:08:02.323Z,11.87
2018-09-04T01:18:03.628Z,12.37
2018-09-04T01:28:04.882Z,11.23
2018-09-04T01:38:07.089Z,9.70
2018-09-04T01:48:08.370Z,10.10
2018-09-04T01:58:09.631Z,9.87
2018-09-04T02:08:10.891Z,8.93
2018-09-04T02:18:12.191Z,9.90
2018-09-04T02:28:13.456Z,10.00
2018-09-04T02:38:14.746Z,10.00
2018-09-04T02:48:16.010Z,9.20
2018-09-04T02:58:17.344Z,7.83
2018-09-04T03:08:18.615Z,5.80
2018-09-04T03:18:20.104Z,6.23
2018-09-04T03:28:21.387Z,6.70
2018-09-04T03:38:22.687Z,6.13
2018-09-04T03:48:23.981Z,5.57
2018-09-04T03:58:25.252Z,5.40
2018-09-04T04:08:26.511Z,4.80
2018-09-04T04:18:27.763Z,5.23
2018-09-04T04:28:29.021Z,4.90
2018-09-04T04:38:30.272Z,4.23
2018-09-04T04:48:31.541Z,4.57
2018-09-04T04:58:33.601Z,4.63
2018-09-04T05:08:34.871Z,4.50
2018-09-04T05:18:37.652Z,5.20
2018-09-04T05:28:39.046Z,4.97
2018-09-04T05:38:40.308Z,4.33
2018-09-04T05:48:41.637Z,4.37
2018-09-04T05:58:42.869Z,5.17
2018-09-04T06:08:44.122Z,5.73
2018-09-04T06:18:45.366Z,5.87
2018-09-04T06:28:46.616Z,4.90
2018-09-04T06:38:47.885Z,5.57
2018-09-04T06:48:51.472Z,5.27
2018-09-04T06:58:52.911Z,5.93
2018-09-04T07:08:54.191Z,5.40
2018-09-04T07:18:55.442Z,5.87
2018-09-04T07:28:56.750Z,5.00
2018-09-04T07:38:58.007Z,5.23
2018-09-04T07:49:00.023Z,5.37
2018-09-04T07:59:02.058Z,5.33
2018-09-04T08:09:03.303Z,5.73
2018-09-04T08:19:04.538Z,4.93
2018-09-04T08:29:07.626Z,5.07
2018-09-04T08:39:09.162Z,5.77
2018-09-04T08:59:18.476Z,4.97
2018-09-04T09:09:20.387Z,4.83
2018-09-04T09:19:21.752Z,6.20
2018-09-04T09:29:23.010Z,7.20
2018-09-04T09:39:24.279Z,7.33
2018-09-04T09:59:32.124Z,7.20
2018-09-04T10:09:33.368Z,6.70
2018-09-04T10:19:34.643Z,5.37
2018-09-04T10:29:35.937Z,5.13
2018-09-04T10:39:37.198Z,4.93
2018-09-04T10:49:39.426Z,5.20
2018-09-04T10:59:41.539Z,5.22
2018-09-04T11:09:42.986Z,5.40
2018-09-04T11:19:44.132Z,5.45
2018-09-04T11:29:46.213Z,5.43
2018-09-04T11:39:47.443Z,4.97
2018-09-04T11:49:53.824Z,5.90
2018-09-04T11:59:55.918Z,5.20
2018-09-04T12:09:57.217Z,5.32
2018-09-04T12:19:59.405Z,5.50
2018-09-04T12:30:02.387Z,5.03
2018-09-04T12:40:03.690Z,5.63
2018-09-04T12:50:05.131Z,5.57
2018-09-04T13:00:06.590Z,5.50
2018-09-04T13:10:07.901Z,5.17
2018-09-04T13:20:09.150Z,5.18
2018-09-04T13:30:11.160Z,4.97
2018-09-04T13:40:15.922Z,5.70
2018-09-04T13:50:18.094Z,5.05
2018-09-04T14:00:19.411Z,5.07
2018-09-04T14:10:21.443Z,5.65
2018-09-04T14:20:23.250Z,5.47
2018-09-04T14:30:24.706Z,5.50
2018-09-04T14:40:27.423Z,6.05
2018-09-04T14:50:28.723Z,5.80
2018-09-04T15:00:30.008Z,5.10
2018-09-04T15:10:31.354Z,5.20
2018-09-04T15:20:33.374Z,5.03
2018-09-04T15:30:34.670Z,5.33
2018-09-04T15:40:36.048Z,5.60
2018-09-04T15:50:38.063Z,5.57
2018-09-04T16:00:39.354Z,5.60
2018-09-04T16:10:40.642Z,5.53
2018-09-04T16:20:41.942Z,5.70
2018-09-04T16:30:43.330Z,5.70
2018-09-04T16:40:44.762Z,5.30
2018-09-04T16:50:46.806Z,5.50
2018-09-04T17:00:48.060Z,4.73
2018-09-04T17:10:50.242Z,5.17
2018-09-04T17:20:52.569Z,5.23
2018-09-04T17:30:53.835Z,6.07
2018-09-04T17:40:55.095Z,5.77
2018-09-04T17:50:57.132Z,5.40
2018-09-04T18:00:58.444Z,5.70
2018-09-04T18:10:59.898Z,5.50
2018-09-04T18:21:01.936Z,5.37
2018-09-04T18:31:03.347Z,5.03
2018-09-04T18:41:04.624Z,5.60
2018-09-04T18:51:05.905Z,5.87
2018-09-04T19:01:07.926Z,5.70
2018-09-04T19:11:09.206Z,5.23
2018-09-04T19:21:11.255Z,5.53
2018-09-04T19:31:12.510Z,5.90
2018-09-04T19:41:13.774Z,5.47
2018-09-04T19:51:15.064Z,6.03
2018-09-04T20:11:23.679Z,5.97
2018-09-04T20:21:24.975Z,6.70
2018-09-04T20:31:26.416Z,6.97
2018-09-04T20:41:27.683Z,6.20
2018-09-04T20:51:28.977Z,6.43
2018-09-04T21:01:30.388Z,6.07
2018-09-04T21:11:31.651Z,6.53
2018-09-04T21:21:32.900Z,6.50
2018-09-04T21:31:34.180Z,6.43
2018-09-04T21:41:35.399Z,6.10
2018-09-04T21:51:36.784Z,6.83
2018-09-04T22:01:38.066Z,6.07
2018-09-04T22:11:39.362Z,6.20
2018-09-04T22:21:40.786Z,5.77
2018-09-04T22:31:42.052Z,6.13
2018-09-04T22:41:43.342Z,6.53
2018-09-04T22:51:44.581Z,6.50
2018-09-04T23:01:45.835Z,6.93
2018-09-04T23:11:47.134Z,6.67
2018-09-04T23:21:48.448Z,6.63
2018-09-04T23:31:49.693Z,5.87
2018-09-04T23:41:50.974Z,6.13
2018-09-04T23:51:52.230Z,5.60
